CheckWX is a tool to help pilots better visualize weather data.  It is not intended as a substitute for an official pre-flight weather briefing.

09:44:44 UTC

KAVK METAR
Alva Regional Airport
Alva, Oklahoma, USA
Current

30 mins ago

KAVK 310915Z AUTO 15008KT 10SM CLR 17/12 A3015 RMK AO2 PWINO TSNO
Observed
May-31 @ 09:15 UTC
Wind
  • 150° at 8 KTS
Visibility
Flight Rules
VFR
Cloud Levels
  • Clear skies
Temperature
17°C / 63°F
Dewpoint
12°C / 54°F
Humidity
73%
Altimeter
30.15" Hg
Pressure
1021.02 hPa
Previous

50 mins ago

KAVK 310855Z AUTO 16008KT 10SM CLR 17/12 A3014 RMK AO2 PWINO TSNO
Observed
May-31 @ 08:55 UTC
Wind
  • 160° at 8 KTS
Visibility
Flight Rules
VFR
Cloud Levels
  • Clear skies
Temperature
17°C / 63°F
Dewpoint
12°C / 54°F
Humidity
73%
Altimeter
30.14" Hg
Pressure
1020.62 hPa
Previous

1 hour ago

KAVK 310835Z AUTO 16007KT 10SM CLR 17/12 A3015 RMK AO2 PWINO TSNO
Observed
May-31 @ 08:35 UTC
Wind
  • 160° at 7 KTS
Visibility
Flight Rules
VFR
Cloud Levels
  • Clear skies
Temperature
17°C / 63°F
Dewpoint
12°C / 54°F
Humidity
73%
Altimeter
30.15" Hg
Pressure
1021.02 hPa